Time;durP1;ratioP1;P1;durP2;ratioP2;P2;SDS_P1;SDS_P2;PMS_P1;PMS_P2;Temp;Humidity;BMP_temperature;BMP_pressure;BME280_temperature;BME280_humidity;BME280_pressure;Samples;Min_cycle;Max_cycle;Signal;HPM_P1;HPM_P2
2021/10/31 00:01:11;;;;;;;19.60;12.93;;;;;;;9.22;87.75;95513.72;5134943;28;20442;-83
2021/10/31 00:03:39;;;;;;;24.13;15.90;;;;;;;9.24;87.23;95512.66;5135184;28;20454;-84
2021/10/31 00:06:06;;;;;;;25.20;14.80;;;;;;;9.32;87.47;95515.63;5134593;28;20465;-83
2021/10/31 00:08:33;;;;;;;24.50;15.93;;;;;;;9.27;87.66;95520.34;5134636;28;20967;-83
2021/10/31 00:11:01;;;;;;;27.43;17.50;;;;;;;9.32;88.03;95520.84;5134507;28;20920;-83
2021/10/31 00:13:30;;;;;;;28.13;17.20;;;;;;;9.36;88.12;95510.16;5134822;28;20434;-83
2021/10/31 00:15:57;;;;;;;22.67;16.70;;;;;;;9.14;89.34;95513.41;5134439;28;20527;-83
2021/10/31 00:18:25;;;;;;;21.93;16.23;;;;;;;9.08;89.98;95511.25;5134803;28;20447;-83
2021/10/31 00:20:52;;;;;;;20.53;16.80;;;;;;;9.24;89.25;95504.81;5134448;28;20478;-84
2021/10/31 00:23:19;;;;;;;25.97;17.57;;;;;;;9.29;88.72;95510.59;5134653;28;20438;-83
2021/10/31 00:25:46;;;;;;;25.10;15.77;;;;;;;9.37;88.99;95507.44;5134400;28;20867;-83
2021/10/31 00:28:13;;;;;;;22.77;14.37;;;;;;;9.46;87.89;95511.19;5134539;28;20458;-83
2021/10/31 00:30:41;;;;;;;22.47;15.20;;;;;;;9.46;88.01;95508.56;5081979;28;20941;-83
2021/10/31 00:33:09;;;;;;;23.63;16.30;;;;;;;9.46;87.74;95504.16;5134680;28;20473;-83
2021/10/31 00:35:36;;;;;;;24.80;16.20;;;;;;;9.33;88.00;95503.34;5134802;28;20464;-83
2021/10/31 00:38:04;;;;;;;21.40;15.27;;;;;;;9.44;88.18;95502.59;5134470;28;20526;-83
2021/10/31 00:40:32;;;;;;;25.90;17.87;;;;;;;9.53;87.72;95501.94;5134194;28;20437;-83
2021/10/31 00:42:59;;;;;;;21.03;15.40;;;;;;;9.52;87.26;95502.88;5134675;28;20462;-83
2021/10/31 00:45:26;;;;;;;25.80;16.03;;;;;;;9.49;87.63;95497.84;5081949;28;20513;-83
2021/10/31 00:47:54;;;;;;;26.43;17.33;;;;;;;9.51;87.40;95499.41;5081533;28;21059;-83
2021/10/31 00:50:23;;;;;;;24.63;17.50;;;;;;;9.48;87.19;95504.03;5134405;27;20979;-83
2021/10/31 00:52:50;;;;;;;22.50;16.60;;;;;;;9.41;87.74;95500.19;5138246;27;20505;-83
2021/10/31 00:55:17;;;;;;;25.90;17.00;;;;;;;9.37;87.60;95498.72;5138073;27;20506;-83
2021/10/31 00:57:46;;;;;;;22.17;17.27;;;;;;;9.37;87.70;95494.34;5138051;27;20453;-83
2021/10/31 01:00:14;;;;;;;22.87;16.60;;;;;;;9.42;87.98;95494.00;5137839;27;20857;-83
2021/10/31 01:02:41;;;;;;;19.80;15.40;;;;;;;9.45;88.24;95497.25;5085668;27;20513;-83
2021/10/31 01:05:12;;;;;;;23.53;17.30;;;;;;;9.49;88.08;95490.00;5137890;27;20466;-83
2021/10/31 01:07:52;;;;;;;26.47;17.67;;;;;;;9.46;87.35;95490.22;5137578;27;20912;-83
2021/10/31 01:10:26;;;;;;;20.97;16.37;;;;;;;9.51;87.41;95482.88;5137254;27;20478;-83
2021/10/31 01:13:26;;;;;;;31.63;19.60;;;;;;;9.49;87.24;95479.53;5137642;27;20717;-83
2021/10/31 01:16:02;;;;;;;39.57;23.10;;;;;;;9.48;86.39;95494.41;5034368;28;20455;-83
2021/10/31 01:18:46;;;;;;;26.50;18.53;;;;;;;9.41;86.57;95485.31;5034517;28;20442;-83
2021/10/31 01:21:24;;;;;;;24.33;17.13;;;;;;;9.40;87.44;95490.66;5034102;28;20443;-83
2021/10/31 01:24:06;;;;;;;25.77;18.30;;;;;;;9.37;87.10;95483.03;5034213;28;20443;-83
2021/10/31 01:26:51;;;;;;;36.77;19.40;;;;;;;9.35;87.53;95482.28;5033911;28;21067;-83
2021/10/31 01:29:34;;;;;;;26.43;17.20;;;;;;;9.37;88.25;95476.00;5034148;28;20447;-83
2021/10/31 01:32:15;;;;;;;25.83;18.53;;;;;;;9.41;87.90;95476.63;5034391;28;20473;-83
2021/10/31 01:34:53;;;;;;;23.57;16.77;;;;;;;9.45;88.24;95478.91;5033902;28;20447;-83
2021/10/31 01:37:30;;;;;;;23.63;16.03;;;;;;;9.45;87.84;95468.44;5033721;28;20455;-83
2021/10/31 01:40:05;;;;;;;21.23;14.63;;;;;;;9.48;87.87;95472.59;5033703;28;20458;-83
2021/10/31 01:42:41;;;;;;;27.80;15.40;;;;;;;9.47;88.72;95457.84;5033946;28;20442;-83
2021/10/31 01:45:16;;;;;;;26.83;14.20;;;;;;;9.47;88.14;95460.47;5033657;28;20940;-83
2021/10/31 01:47:50;;;;;;;26.57;14.00;;;;;;;9.54;87.99;95472.16;5033750;28;20475;-83
2021/10/31 01:50:33;;;;;;;19.13;14.63;;;;;;;9.55;88.43;95468.63;5033591;28;20452;-83
2021/10/31 01:53:09;;;;;;;23.13;13.90;;;;;;;9.57;88.60;95464.94;5114625;27;20429;-83
2021/10/31 01:55:41;;;;;;;20.00;14.23;;;;;;;9.56;87.61;95459.81;5136719;27;20522;-83
2021/10/31 01:58:11;;;;;;;17.57;12.83;;;;;;;9.57;87.96;95457.09;5137207;27;20510;-83
2021/10/31 02:00:40;;;;;;;22.77;15.67;;;;;;;9.60;88.43;95459.47;5136747;27;20513;-83
2021/10/31 02:03:46;;;;;;;19.03;13.47;;;;;;;9.64;88.21;95457.47;5136567;27;20431;-83
2021/10/31 02:06:15;;;;;;;18.93;12.67;;;;;;;9.65;87.60;95453.91;5136488;27;20913;-83
2021/10/31 02:08:47;;;;;;;17.80;13.43;;;;;;;9.69;87.80;95459.75;5136614;27;20460;-83
2021/10/31 02:11:16;;;;;;;20.10;15.50;;;;;;;9.70;87.63;95458.81;5136452;27;20430;-83
2021/10/31 02:13:47;;;;;;;22.17;14.67;;;;;;;9.69;87.80;95454.53;5083638;27;21641;-82
2021/10/31 02:16:15;;;;;;;19.97;13.90;;;;;;;9.65;87.87;95451.28;5136231;27;20828;-83
2021/10/31 02:18:44;;;;;;;22.00;14.40;;;;;;;9.68;87.88;95458.94;5083650;27;20441;-82
2021/10/31 02:21:12;;;;;;;20.83;15.77;;;;;;;9.69;87.77;95454.53;5136441;27;20525;-82
2021/10/31 02:23:40;;;;;;;23.87;15.00;;;;;;;9.61;87.64;95444.59;5136475;27;20943;-83
2021/10/31 02:26:07;;;;;;;22.80;15.67;;;;;;;9.66;87.45;95454.75;5083438;27;20966;-83
2021/10/31 02:28:38;;;;;;;29.07;16.60;;;;;;;9.64;87.28;95447.00;5083559;27;20482;-83
2021/10/31 02:31:05;;;;;;;26.33;17.63;;;;;;;9.62;88.11;95451.50;5135808;27;20437;-83
2021/10/31 02:33:32;;;;;;;28.70;16.20;;;;;;;9.60;88.26;95450.78;5135828;27;20461;-83
2021/10/31 02:35:59;;;;;;;24.13;17.87;;;;;;;9.64;88.29;95447.00;5136131;27;20541;-83
2021/10/31 02:38:26;;;;;;;26.57;16.20;;;;;;;9.60;88.60;95445.56;5136331;27;20451;-83
2021/10/31 02:40:54;;;;;;;29.40;16.30;;;;;;;9.58;88.72;95440.44;5136339;27;20792;-83
2021/10/31 02:43:21;;;;;;;25.10;16.53;;;;;;;9.59;88.86;95441.25;5135607;27;20795;-83
2021/10/31 02:45:48;;;;;;;26.97;16.83;;;;;;;9.53;88.93;95441.69;5135824;27;20445;-83
2021/10/31 02:48:17;;;;;;;26.27;17.23;;;;;;;9.44;88.93;95434.47;5135735;27;20550;-83
2021/10/31 02:50:46;;;;;;;27.23;16.37;;;;;;;9.45;89.47;95446.63;5135570;27;20470;-83
2021/10/31 02:53:19;;;;;;;25.63;17.80;;;;;;;9.45;90.09;95441.41;5083763;27;20772;-83
2021/10/31 02:55:58;;;;;;;22.30;16.77;;;;;;;9.47;89.58;95429.84;5135781;27;20829;-83
2021/10/31 02:58:32;;;;;;;23.60;15.83;;;;;;;9.54;89.53;95440.72;5135682;27;20775;-83
2021/10/31 03:01:03;;;;;;;23.40;16.40;;;;;;;9.54;90.12;95436.34;5135473;27;20920;-82
2021/10/31 03:03:31;;;;;;;25.57;16.97;;;;;;;9.57;90.49;95440.53;5135401;27;20758;-83
2021/10/31 03:05:59;;;;;;;39.83;18.63;;;;;;;9.56;90.19;95428.38;5135710;27;20518;-83
2021/10/31 03:08:26;;;;;;;26.23;17.77;;;;;;;9.64;90.10;95436.50;5135509;27;20620;-83
2021/10/31 03:10:57;;;;;;;21.93;16.33;;;;;;;9.63;89.66;95427.81;5083424;27;20873;-83
2021/10/31 03:13:26;;;;;;;32.03;17.67;;;;;;;9.70;89.19;95438.69;5134620;27;20439;-83
2021/10/31 03:15:53;;;;;;;24.30;16.27;;;;;;;9.65;89.13;95437.34;5135294;27;20525;-83
2021/10/31 03:18:20;;;;;;;33.27;19.50;;;;;;;9.56;88.87;95434.47;5135066;27;20972;-83
2021/10/31 03:20:48;;;;;;;38.27;22.63;;;;;;;9.52;89.74;95442.63;5135208;27;20514;-83
2021/10/31 03:23:15;;;;;;;42.43;27.70;;;;;;;9.48;89.59;95439.38;5135244;27;20950;-83
2021/10/31 03:25:42;;;;;;;36.93;25.30;;;;;;;9.28;89.78;95426.91;5135584;27;20434;-83
2021/10/31 03:28:10;;;;;;;33.43;23.63;;;;;;;9.27;90.00;95431.31;5135404;27;20474;-83
2021/10/31 03:30:38;;;;;;;31.43;22.27;;;;;;;9.28;90.25;95430.34;5135055;27;20431;-83
2021/10/31 03:33:05;;;;;;;27.57;20.30;;;;;;;9.30;90.29;95433.69;5134919;27;20449;-83
2021/10/31 03:35:32;;;;;;;29.93;21.20;;;;;;;9.24;89.77;95434.09;5134706;27;20430;-83
2021/10/31 03:37:59;;;;;;;31.60;22.73;;;;;;;9.21;90.09;95433.50;5135214;27;20542;-83
2021/10/31 03:40:26;;;;;;;30.90;22.57;;;;;;;9.24;90.59;95428.88;5135239;28;20870;-83
2021/10/31 03:42:53;;;;;;;29.13;19.83;;;;;;;9.24;91.10;95428.88;5135138;28;20510;-83
2021/10/31 03:45:21;;;;;;;33.20;21.30;;;;;;;9.26;91.09;95426.19;5082459;28;20471;-83
2021/10/31 03:47:49;;;;;;;37.83;22.27;;;;;;;9.17;90.54;95437.28;5082184;28;20474;-83
2021/10/31 03:50:17;;;;;;;29.47;19.70;;;;;;;9.20;90.27;95432.66;5134492;28;20996;-84
2021/10/31 03:52:44;;;;;;;34.80;20.70;;;;;;;9.19;89.63;95430.97;5134777;28;20438;-84
2021/10/31 03:55:12;;;;;;;27.87;18.60;;;;;;;9.15;89.33;95426.91;5134958;28;20427;-84
2021/10/31 03:57:40;;;;;;;30.67;19.30;;;;;;;9.11;89.74;95433.31;5135154;28;20439;-84
2021/10/31 04:00:10;;;;;;;27.37;20.10;;;;;;;9.01;90.08;95429.69;5134990;28;20522;-85
2021/10/31 04:02:39;;;;;;;27.63;20.00;;;;;;;8.98;90.48;95425.50;5082450;28;20518;-84
2021/10/31 04:05:07;;;;;;;32.00;22.67;;;;;;;8.96;91.15;95431.75;5134898;28;20453;-84
2021/10/31 04:07:34;;;;;;;35.87;23.40;;;;;;;8.98;90.50;95429.91;5134748;28;20573;-85
2021/10/31 04:10:01;;;;;;;36.67;23.50;;;;;;;9.03;90.66;95435.66;5135355;28;20845;-84
2021/10/31 04:12:28;;;;;;;29.17;20.47;;;;;;;8.88;90.28;95432.31;5134552;28;20431;-84
2021/10/31 04:14:55;;;;;;;32.13;21.60;;;;;;;8.80;90.52;95420.69;5082330;28;20438;-83
2021/10/31 04:17:22;;;;;;;41.60;24.53;;;;;;;8.77;90.35;95419.13;5134594;28;20533;-84
2021/10/31 04:19:52;;;;;;;36.77;22.90;;;;;;;8.81;90.63;95420.59;5081593;28;21016;-84
2021/10/31 04:22:19;;;;;;;39.77;24.40;;;;;;;8.85;90.96;95426.44;5134659;28;20435;-84
2021/10/31 04:24:46;;;;;;;38.67;21.80;;;;;;;8.85;90.72;95426.44;5134807;27;20431;-84
2021/10/31 04:27:13;;;;;;;34.80;22.07;;;;;;;8.75;90.73;95428.03;5137623;27;20490;-84
2021/10/31 04:29:40;;;;;;;35.22;23.83;;;;;;;8.84;91.01;95427.38;5137598;27;20518;-84
2021/10/31 04:32:08;;;;;;;36.47;22.03;;;;;;;8.86;90.18;95428.13;5138361;27;20276;-84
2021/10/31 04:34:35;;;;;;;41.33;24.73;;;;;;;8.84;89.44;95420.38;5139213;27;20430;-84
2021/10/31 04:40:25;;;;;;;35.97;22.30;;;;;;;8.89;89.32;95423.50;5138610;27;20439;-84
2021/10/31 04:42:53;;;;;;;37.33;24.70;;;;;;;8.88;89.47;95428.84;5138095;27;20969;-84
2021/10/31 04:45:20;;;;;;;43.20;23.73;;;;;;;8.89;89.30;95417.44;5085626;27;20442;-84
2021/10/31 04:47:47;;;;;;;42.10;23.90;;;;;;;8.92;89.63;95423.28;5101952;27;20466;-85
2021/10/31 04:50:14;;;;;;;36.20;22.93;;;;;;;8.90;89.58;95411.25;5138185;27;20427;-84
2021/10/31 04:52:43;;;;;;;31.20;21.80;;;;;;;8.86;90.04;95417.66;5137590;27;20538;-84
2021/10/31 04:55:10;;;;;;;50.40;25.50;;;;;;;8.85;89.77;95410.75;5137366;27;20808;-85
2021/10/31 04:57:38;;;;;;;51.83;27.60;;;;;;;8.90;90.14;95406.03;5137797;27;20439;-84
2021/10/31 05:00:06;;;;;;;45.77;21.77;;;;;;;8.77;89.69;95408.66;5137861;27;20522;-84
2021/10/31 05:02:34;;;;;;;34.30;19.50;;;;;;;8.69;89.53;95411.81;5138606;27;20517;-85
2021/10/31 05:05:01;;;;;;;35.60;23.07;;;;;;;8.73;89.54;95412.44;5138440;27;20430;-84
2021/10/31 05:07:28;;;;;;;41.53;26.03;;;;;;;8.68;90.05;95404.09;5137884;27;20676;-84
2021/10/31 05:09:55;;;;;;;26.37;19.00;;;;;;;8.75;89.65;95407.94;5138867;27;20936;-84
2021/10/31 05:12:25;;;;;;;34.30;21.77;;;;;;;8.67;89.59;95415.47;5136969;27;20937;-83
2021/10/31 05:14:54;;;;;;;33.57;20.53;;;;;;;8.75;90.65;95402.72;5138228;27;20847;-84
2021/10/31 05:17:21;;;;;;;43.07;22.80;;;;;;;8.77;89.66;95407.84;5072679;28;20442;-87
2021/10/31 05:19:48;;;;;;;42.37;22.20;;;;;;;8.73;89.62;95411.59;5117280;28;20972;-86
2021/10/31 05:22:15;;;;;;;42.70;24.90;;;;;;;8.57;90.49;95407.41;5117156;28;20788;-85
2021/10/31 05:24:42;;;;;;;55.47;24.83;;;;;;;8.55;90.91;95417.16;5116737;28;20507;-84
2021/10/31 05:27:09;;;;;;;44.07;24.23;;;;;;;8.54;90.95;95407.63;5116509;28;20574;-86
2021/10/31 05:29:36;;;;;;;39.23;23.37;;;;;;;8.62;91.08;95410.53;5116694;28;20993;-86
2021/10/31 05:32:05;;;;;;;58.80;33.07;;;;;;;8.64;91.90;95413.88;5117357;28;20538;-88
2021/10/31 05:34:44;;;;;;;38.77;23.73;;;;;;;8.63;91.98;95411.38;5117531;28;20920;-86
2021/10/31 05:37:12;;;;;;;45.77;24.80;;;;;;;8.69;92.16;95416.22;5064375;28;20435;-86
2021/10/31 05:39:39;;;;;;;41.93;27.17;;;;;;;8.75;92.06;95410.56;5117321;28;20432;-85
2021/10/31 05:42:06;;;;;;;48.17;24.67;;;;;;;8.82;91.65;95413.56;5116418;28;20914;-82
2021/10/31 05:44:33;;;;;;;36.03;24.30;;;;;;;8.86;91.10;95412.41;5116044;28;20439;-82
2021/10/31 05:47:00;;;;;;;28.63;21.47;;;;;;;8.90;90.41;95430.41;5130451;27;20462;-83
2021/10/31 05:49:29;;;;;;;37.20;22.53;;;;;;;8.90;90.21;95417.31;5136447;27;20475;-83
2021/10/31 05:51:56;;;;;;;35.73;26.40;;;;;;;8.90;90.06;95419.09;5084124;27;20537;-83
2021/10/31 05:54:23;;;;;;;40.90;26.98;;;;;;;8.86;90.21;95413.25;5084288;27;20407;-81
2021/10/31 05:56:50;;;;;;;36.08;24.63;;;;;;;8.93;90.44;95419.72;5136646;27;20425;-81
2021/10/31 05:59:17;;;;;;;37.43;23.67;;;;;;;8.93;89.73;95418.88;5136826;27;20292;-81
2021/10/31 06:01:43;;;;;;;44.53;24.53;;;;;;;8.96;89.44;95431.75;5136590;27;20442;-81
2021/10/31 06:04:10;;;;;;;34.27;23.13;;;;;;;8.95;89.76;95427.47;5135671;27;20817;-82
2021/10/31 06:06:39;;;;;;;35.67;21.40;;;;;;;9.00;90.03;95430.63;5135646;27;20442;-82
2021/10/31 06:09:06;;;;;;;31.87;22.20;;;;;;;9.03;90.21;95422.56;5083484;27;20486;-83
2021/10/31 06:11:34;;;;;;;38.90;22.60;;;;;;;9.12;89.77;95418.44;5135863;27;20474;-83
2021/10/31 06:14:01;;;;;;;34.37;20.37;;;;;;;9.16;89.65;95425.97;5135869;27;20825;-83
2021/10/31 06:16:28;;;;;;;24.03;17.73;;;;;;;9.09;89.06;95429.13;5136493;27;20533;-84
2021/10/31 06:18:55;;;;;;;27.43;18.50;;;;;;;8.99;88.96;95419.31;5083938;27;20433;-82
2021/10/31 06:21:22;;;;;;;23.83;15.57;;;;;;;8.89;89.51;95426.13;5135683;27;20513;-82
2021/10/31 06:23:51;;;;;;;23.17;17.07;;;;;;;8.99;88.62;95431.56;5136523;27;20471;-82
2021/10/31 06:26:18;;;;;;;31.13;20.43;;;;;;;9.00;89.49;95428.84;5135662;27;20478;-82
2021/10/31 06:28:45;;;;;;;27.63;21.70;;;;;;;9.04;90.19;95432.09;5136695;27;20470;-84
2021/10/31 06:31:12;;;;;;;28.47;19.07;;;;;;;9.11;89.45;95432.47;5136355;27;20897;-85
2021/10/31 06:33:38;;;;;;;34.17;21.85;;;;;;;9.17;89.31;95434.66;5135051;27;20469;-79
2021/10/31 06:36:05;;;;;;;33.37;22.10;;;;;;;9.13;88.90;95436.66;5135807;27;20551;-81
2021/10/31 06:38:33;;;;;;;38.20;24.17;;;;;;;9.07;88.94;95439.72;5099820;27;20506;-83
2021/10/31 06:41:07;;;;;;;36.93;21.63;;;;;;;9.17;89.31;95443.34;5136074;27;20519;-87
2021/10/31 06:43:34;;;;;;;27.55;18.45;;;;;;;9.22;89.04;95437.78;5136126;27;20490;-87
2021/10/31 06:46:01;;;;;;;24.43;17.37;;;;;;;8.95;89.76;95440.56;5136881;27;20235;-87
2021/10/31 06:48:28;;;;;;;23.10;16.53;;;;;;;8.94;89.55;95439.72;5130158;27;20542;-87
2021/10/31 06:50:56;;;;;;;30.88;19.05;;;;;;;9.03;89.63;95440.03;5129964;27;20941;-87
2021/10/31 06:53:23;;;;;;;36.83;17.37;;;;;;;9.14;90.04;95443.56;5130803;27;20541;-87
2021/10/31 06:55:50;;;;;;;31.63;18.10;;;;;;;9.10;91.26;95439.50;5130743;27;20447;-87
2021/10/31 06:58:18;;;;;;;29.43;17.17;;;;;;;9.23;89.57;95431.59;5130883;27;20470;-88
2021/10/31 07:00:45;;;;;;;22.77;16.97;;;;;;;9.34;88.78;95441.34;5131488;27;20515;-87
2021/10/31 07:03:12;;;;;;;25.50;16.30;;;;;;;9.31;88.79;95435.38;5130985;27;20450;-87
2021/10/31 07:05:40;;;;;;;23.53;16.30;;;;;;;9.42;88.51;95436.38;5130733;27;20542;-86
2021/10/31 07:08:07;;;;;;;23.30;16.77;;;;;;;9.50;88.23;95434.88;5131286;27;21022;-86
2021/10/31 07:10:34;;;;;;;29.30;18.30;;;;;;;9.52;87.84;95440.00;5134020;27;20525;-87
2021/10/31 07:13:06;;;;;;;28.70;16.60;;;;;;;9.62;87.61;95441.03;5136107;27;20845;-86
2021/10/31 07:15:34;;;;;;;26.63;18.60;;;;;;;9.66;87.64;95437.25;5135473;27;20522;-86
2021/10/31 07:18:02;;;;;;;24.97;17.40;;;;;;;9.62;88.13;95433.19;5136169;27;20438;-86
2021/10/31 07:20:29;;;;;;;29.60;15.87;;;;;;;9.76;87.93;95434.78;5135465;27;20940;-87
2021/10/31 07:22:56;;;;;;;30.17;16.90;;;;;;;9.76;87.90;95425.13;5100047;27;20533;-86
2021/10/31 07:25:27;;;;;;;27.20;19.43;;;;;;;9.85;87.90;95431.50;5099623;28;20467;-85
2021/10/31 07:27:55;;;;;;;26.03;17.53;;;;;;;9.74;87.07;95437.50;5134870;27;20477;-87
2021/10/31 07:30:23;;;;;;;29.10;18.50;;;;;;;9.65;87.55;95438.19;5136097;27;20530;-87
2021/10/31 07:32:56;;;;;;;33.37;19.40;;;;;;;9.72;87.40;95418.44;5136185;27;20469;-86
2021/10/31 07:35:23;;;;;;;29.27;20.50;;;;;;;9.84;87.81;95422.81;5135219;27;20443;-87
2021/10/31 07:37:50;;;;;;;36.03;22.33;;;;;;;9.99;87.54;95426.06;5135465;27;20509;-86
2021/10/31 07:40:17;;;;;;;29.70;18.53;;;;;;;9.93;87.24;95427.38;5134895;27;20931;-85
2021/10/31 07:42:44;;;;;;;31.40;18.37;;;;;;;9.94;86.95;95425.56;5134369;28;20486;-85
2021/10/31 07:45:11;;;;;;;28.13;17.37;;;;;;;9.72;87.54;95415.81;5132213;28;20467;-86
2021/10/31 07:47:38;;;;;;;27.50;18.90;;;;;;;9.95;87.42;95416.75;5134920;28;20518;-84
2021/10/31 07:50:10;;;;;;;36.30;18.57;;;;;;;9.90;87.16;95417.09;5135174;28;20474;-84
2021/10/31 07:52:43;;;;;;;29.23;20.30;;;;;;;9.90;88.02;95411.88;5132721;28;20449;-83
2021/10/31 07:55:11;;;;;;;30.23;21.47;;;;;;;9.77;87.86;95415.47;5114188;28;20432;-84
2021/10/31 07:57:38;;;;;;;26.87;19.30;;;;;;;9.80;88.34;95421.34;5114069;28;20452;-84
2021/10/31 08:00:10;;;;;;;36.63;21.90;;;;;;;9.82;87.79;95419.44;5118834;28;20444;-87
2021/10/31 08:02:37;;;;;;;31.43;19.93;;;;;;;9.81;88.72;95415.13;5140744;27;20446;-85
2021/10/31 08:05:04;;;;;;;29.60;19.30;;;;;;;9.85;88.21;95418.41;5138812;27;20450;-84
2021/10/31 08:07:33;;;;;;;28.60;18.20;;;;;;;9.86;89.09;95415.66;5138529;27;20453;-82
2021/10/31 08:10:04;;;;;;;29.13;22.03;;;;;;;9.85;88.93;95416.63;5138893;27;20474;-83
2021/10/31 08:12:32;;;;;;;35.83;23.43;;;;;;;10.01;88.60;95412.84;5139680;27;20504;-82
2021/10/31 08:14:59;;;;;;;38.00;24.00;;;;;;;10.07;88.72;95402.72;5159233;27;20436;-83
2021/10/31 08:17:26;;;;;;;38.67;24.40;;;;;;;10.16;87.99;95401.22;5159332;27;20504;-83
2021/10/31 08:19:53;;;;;;;36.67;24.80;;;;;;;10.17;88.00;95413.38;5110415;27;20932;-83
2021/10/31 08:22:20;;;;;;;36.83;20.10;;;;;;;10.30;87.61;95408.06;5140548;27;20499;-85
2021/10/31 08:24:49;;;;;;;31.53;20.50;;;;;;;10.31;87.83;95407.13;5141011;27;20509;-85
2021/10/31 08:27:16;;;;;;;35.57;19.87;;;;;;;10.23;87.48;95402.47;5141485;27;20573;-84
2021/10/31 08:29:45;;;;;;;35.30;22.30;;;;;;;10.27;87.21;95401.28;5142915;27;20506;-85
2021/10/31 08:32:12;;;;;;;30.10;18.77;;;;;;;10.18;87.11;95391.47;5143149;27;20468;-86
2021/10/31 08:34:40;;;;;;;30.17;19.10;;;;;;;10.18;87.90;95397.53;5089641;27;20493;-85
2021/10/31 08:37:07;;;;;;;30.00;19.00;;;;;;;10.11;88.28;95388.44;5143993;27;20517;-85
2021/10/31 08:39:38;;;;;;;23.13;17.60;;;;;;;10.15;87.81;95395.16;5141906;27;20779;-85
2021/10/31 08:42:08;;;;;;;29.03;18.43;;;;;;;10.02;88.33;95393.53;5140632;27;20434;-85
2021/10/31 08:44:37;;;;;;;28.20;19.10;;;;;;;10.07;89.35;95391.41;5140469;27;20993;-85
2021/10/31 08:47:04;;;;;;;33.73;20.10;;;;;;;10.08;88.45;95387.84;5140172;27;20449;-84
2021/10/31 08:49:31;;;;;;;31.13;20.67;;;;;;;9.87;89.78;95385.88;5140945;27;20537;-84
2021/10/31 08:52:04;;;;;;;31.90;20.73;;;;;;;9.95;89.61;95382.69;5142483;27;20472;-85
2021/10/31 08:54:31;;;;;;;35.60;23.03;;;;;;;9.96;89.39;95375.66;5075745;28;20463;-83
2021/10/31 08:56:58;;;;;;;33.60;21.60;;;;;;;10.09;89.89;95374.59;5121859;28;20855;-85
2021/10/31 08:59:26;;;;;;;33.17;19.67;;;;;;;10.10;89.61;95376.28;5119223;28;20501;-83
2021/10/31 09:01:53;;;;;;;30.00;18.80;;;;;;;9.89;90.18;95373.50;5120209;28;20903;-82
2021/10/31 09:04:20;;;;;;;27.30;20.40;;;;;;;10.06;89.77;95363.53;5068159;28;20795;-84
2021/10/31 09:06:47;;;;;;;26.43;17.70;;;;;;;10.02;90.02;95362.91;5119206;27;20525;-84
2021/10/31 09:09:14;;;;;;;29.70;19.00;;;;;;;10.59;100.00;95359.47;5159738;27;20572;-84
2021/10/31 09:11:41;;;;;;;30.43;19.00;;;;;;;10.39;91.15;95365.41;5161253;27;20438;-83
2021/10/31 09:14:08;;;;;;;24.37;17.87;;;;;;;10.35;90.09;95348.22;5163674;27;20440;-87
2021/10/31 09:16:37;;;;;;;27.10;18.07;;;;;;;10.44;89.57;95358.88;5108660;27;20501;-84
2021/10/31 09:19:04;;;;;;;31.00;20.50;;;;;;;10.66;89.59;95367.69;5164030;27;20525;-81
2021/10/31 09:21:31;;;;;;;33.70;19.23;;;;;;;10.60;87.99;95360.31;5161501;27;20493;-82
2021/10/31 09:23:58;;;;;;;31.30;18.87;;;;;;;10.84;87.28;95353.16;5162160;27;20544;-86
2021/10/31 09:26:25;;;;;;;22.33;14.73;;;;;;;11.07;83.28;95365.31;5161617;27;20481;-85
2021/10/31 09:28:52;;;;;;;28.53;19.33;;;;;;;11.16;81.27;95358.47;5162438;27;20557;-84
2021/10/31 09:31:19;;;;;;;23.30;16.30;;;;;;;11.31;79.48;95353.81;5163408;27;20446;-83
2021/10/31 09:33:48;;;;;;;25.07;14.10;;;;;;;11.35;74.69;95349.97;5160683;27;20832;-83
2021/10/31 09:36:15;;;;;;;35.50;23.67;;;;;;;11.53;76.21;95348.47;5161679;27;20587;-85
2021/10/31 09:38:43;;;;;;;17.97;13.47;;;;;;;11.67;77.35;95347.34;5162918;27;21000;-84
2021/10/31 09:41:13;;;;;;;17.07;13.03;;;;;;;11.58;73.96;95346.31;5161230;27;20474;-83
2021/10/31 09:43:47;;;;;;;22.70;11.93;;;;;;;11.63;73.48;95336.25;5160740;27;20915;-83
2021/10/31 09:46:14;;;;;;;19.83;13.57;;;;;;;11.69;73.00;95327.88;5163189;27;20426;-83
2021/10/31 09:48:41;;;;;;;16.10;11.80;;;;;;;11.76;70.34;95329.03;5161426;27;20502;-85
2021/10/31 09:51:11;;;;;;;17.07;12.43;;;;;;;11.89;68.70;95315.75;5161407;27;20533;-84
2021/10/31 09:53:41;;;;;;;21.20;16.67;;;;;;;11.95;69.09;95315.22;5163632;27;20510;-85
2021/10/31 09:56:10;;;;;;;22.00;15.17;;;;;;;12.07;68.18;95315.97;5164669;27;21084;-85
2021/10/31 10:02:11;;;;;;;14.27;12.03;;;;;;;12.01;66.43;95312.06;5165943;27;20960;-83
2021/10/31 10:04:41;;;;;;;20.83;13.10;;;;;;;12.11;66.90;95309.50;5168232;27;20871;-84
2021/10/31 10:07:10;;;;;;;21.13;16.03;;;;;;;12.16;66.90;95314.41;5108728;27;20463;-85
2021/10/31 10:09:38;;;;;;;14.03;11.60;;;;;;;12.12;66.14;95307.69;5162371;27;20476;-82
2021/10/31 10:12:14;;;;;;;17.40;13.17;;;;;;;12.25;66.83;95317.06;5161976;27;20521;-82
2021/10/31 10:14:42;;;;;;;19.50;12.63;;;;;;;12.11;66.52;95306.88;5159839;27;20447;-83
2021/10/31 10:17:11;;;;;;;17.83;14.37;;;;;;;12.00;66.97;95304.31;5106629;27;20525;-84
2021/10/31 10:19:47;;;;;;;15.40;13.80;;;;;;;12.05;66.79;95302.97;5160685;27;20911;-83
2021/10/31 10:22:19;;;;;;;19.40;12.43;;;;;;;12.18;66.96;95292.25;5159902;27;20528;-84
2021/10/31 10:24:52;;;;;;;16.90;12.67;;;;;;;12.26;66.72;95294.22;5159725;27;20512;-83
2021/10/31 10:27:21;;;;;;;16.53;12.23;;;;;;;12.29;66.58;95283.44;5158697;27;20481;-83
2021/10/31 10:29:50;;;;;;;31.30;11.77;;;;;;;12.38;65.75;95280.00;5161328;27;20542;-85
2021/10/31 10:32:20;;;;;;;16.27;13.03;;;;;;;12.46;66.23;95290.75;5158844;27;20434;-85
2021/10/31 10:34:52;;;;;;;18.00;15.00;;;;;;;12.54;66.04;95283.00;5159682;27;20478;-83
2021/10/31 10:37:26;;;;;;;20.17;12.33;;;;;;;12.58;64.90;95283.56;5159546;27;20453;-84
2021/10/31 10:39:56;;;;;;;17.17;13.03;;;;;;;12.21;65.96;95276.22;5140187;27;20438;-83
2021/10/31 10:42:25;;;;;;;28.27;14.13;;;;;;;12.24;67.02;95281.22;5138543;27;20857;-83
2021/10/31 10:44:56;;;;;;;21.07;12.73;;;;;;;12.22;66.17;95272.63;5140965;27;20447;-81
2021/10/31 10:47:24;;;;;;;18.30;13.20;;;;;;;12.32;65.87;95270.84;5138552;27;20916;-82
2021/10/31 10:49:53;;;;;;;14.00;11.60;;;;;;;12.21;66.41;95276.22;5139108;27;20462;-82
2021/10/31 10:52:24;;;;;;;17.60;13.90;;;;;;;12.24;67.05;95262.78;5137777;27;20451;-81
2021/10/31 10:55:01;;;;;;;18.07;13.30;;;;;;;12.20;66.20;95263.19;5137393;27;20904;-83
2021/10/31 10:57:31;;;;;;;17.07;13.83;;;;;;;12.04;65.10;95271.53;5157173;27;20444;-80
2021/10/31 11:00:00;;;;;;;13.53;10.57;;;;;;;11.93;66.80;95261.09;5156741;27;20438;-81
2021/10/31 11:02:28;;;;;;;17.43;12.57;;;;;;;12.05;66.13;95255.63;5157461;27;20429;-80
2021/10/31 11:04:58;;;;;;;16.20;11.57;;;;;;;12.19;66.08;95249.19;5157064;27;20521;-81
2021/10/31 11:07:42;;;;;;;15.60;12.37;;;;;;;12.27;65.62;95244.09;5159165;27;20939;-84
2021/10/31 11:10:21;;;;;;;18.33;11.97;;;;;;;12.43;65.64;95242.78;5158065;27;20472;-82
2021/10/31 11:12:50;;;;;;;16.60;11.20;;;;;;;12.65;64.29;95237.31;5157353;27;20438;-83
2021/10/31 11:15:19;;;;;;;18.13;9.20;;;;;;;12.94;63.78;95243.47;5157903;27;20440;-81
2021/10/31 11:17:48;;;;;;;10.33;9.10;;;;;;;13.15;62.76;95232.00;5158453;27;20548;-83
2021/10/31 11:20:18;;;;;;;13.40;9.77;;;;;;;13.18;60.96;95234.41;5158472;27;20517;-83
2021/10/31 11:22:50;;;;;;;17.97;9.60;;;;;;;13.39;60.22;95227.22;5159492;27;20502;-85
2021/10/31 11:25:20;;;;;;;14.80;9.90;;;;;;;13.35;59.32;95225.00;5159962;27;20847;-82
2021/10/31 11:27:49;;;;;;;9.10;8.17;;;;;;;13.15;59.75;95211.75;5157895;27;20512;-83
2021/10/31 11:30:17;;;;;;;9.93;8.40;;;;;;;13.10;59.77;95221.88;5159679;27;21028;-82
2021/10/31 11:32:45;;;;;;;10.43;9.20;;;;;;;13.30;59.96;95210.44;5157350;27;20517;-81
2021/10/31 11:35:15;;;;;;;9.00;8.10;;;;;;;12.98;59.30;95210.63;5158855;27;20476;-82
2021/10/31 11:37:47;;;;;;;8.20;7.40;;;;;;;12.80;60.46;95212.28;5157938;27;20533;-82
2021/10/31 11:40:18;;;;;;;12.43;9.23;;;;;;;12.84;61.50;95200.50;5158812;27;20486;-82